Flight Track Log - Related Links

Times and Time Zones

All times are in EST time to prevent confusion due to time zone crossing. See the FFT904 flight status page for this flight to view local times or setup timezone preferences in your user account.

Time Position Orientation Groundspeed Altitude Reporting Facility
EST Latitude Longitude Course Direction KTS MPH feet Rate Location/Type
Mon 11:21:27 AM 26.0750 -80.1319 81° East 149 171 1,200  Level Miami Center
Mon 11:22:38 AM 26.0850 -80.0583 81° East 236 272 2,900 1,740 Climbing Miami Center
Mon 11:23:38 AM 26.1497 -80.0578 360° North 268 308 5,000 2,200 Climbing Miami Center
Mon 11:24:38 AM 26.2092 -80.1103 322° Northwest 225 259 7,300 2,550 Climbing Miami Center
Mon 11:25:38 AM 26.2644 -80.1581 322° Northwest 232 267 10,100 2,350 Climbing Miami Center
Mon 11:26:38 AM 26.3322 -80.2133 324° Northwest 285 328 12,000 1,550 Climbing Miami Center
Mon 11:27:38 AM 26.4150 -80.2503 338° Northwest 330 380 13,200 1,833 Climbing Miami Center
Mon 11:29:38 AM 26.6281 -80.3286 342° North 402 463 17,500 2,233 Climbing Miami Center
Mon 11:30:38 AM 26.7483 -80.3739 341° North 410 472 19,900 2,000 Climbing Miami Center
Mon 11:31:38 AM 26.8600 -80.4169 341° North 417 480 21,500 1,700 Climbing Miami Center
Mon 11:32:38 AM 26.9758 -80.4600 342° North 422 486 23,300 1,650 Climbing Miami Center
Mon 11:33:38 AM 27.0917 -80.5056 341° North 428 493 24,800 1,350 Climbing Miami Center
Mon 11:34:38 AM 27.2117 -80.5492 342° North 439 505 26,000 1,333 Climbing Miami Center
Mon 11:36:38 AM 27.4536 -80.6389 344° North 457 526 28,800 1,433 Climbing Miami Center
Mon 11:37:38 AM 27.5775 -80.6850 342° North 457 526 30,300 1,500 Climbing Miami Center
Mon 11:38:38 AM 27.6953 -80.7311 341° North 457 526 31,800 1,450 Climbing Miami Center
Mon 11:39:38 AM 27.8153 -80.7775 341° North 457 526 33,200 1,750 Climbing Miami Center
Mon 11:40:38 AM 27.9308 -80.8192 342° North 450 518 35,300 1,450 Climbing Miami Center
Mon 11:41:38 AM 28.0444 -80.8608 342° North 437 503 36,100 650 Climbing Miami Center
Mon 11:42:38 AM 28.1622 -80.9050 342° North 437 503 36,600 650 Climbing Miami Center
Mon 11:43:38 AM 28.2778 -80.9492 341° North 437 503 37,400 1,000 Climbing Miami Center
Mon 11:44:38 AM 28.3933 -80.9933 341° North 442 509 38,600 800 Climbing Miami Center
Mon 11:45:38 AM 28.5047 -81.0378 341° North 437 503 39,000 205 Climbing Miami Center
Mon 11:46:35 AM 28.6089 -81.0811 340° North 431 496 39,000  Level Jacksonville Center
Mon 11:47:35 AM 28.7117 -81.1197 342° North 431 496 39,000  Level Jacksonville Center
Mon 11:48:35 AM 28.8308 -81.1506 347° North 431 496 39,000  Level Jacksonville Center
Mon 11:49:35 AM 28.9503 -81.1769 349° North 431 496 39,000  Level Jacksonville Center
Mon 11:50:35 AM 29.0697 -81.2058 348° North 431 496 39,000  Level Jacksonville Center
Mon 11:51:35 AM 29.1889 -81.2322 349° North 431 496 39,000  Level Jacksonville Center
Mon 11:52:35 AM 29.3061 -81.2636 347° North 431 496 39,000  Level Jacksonville Center
Mon 11:53:35 AM 29.4236 -81.2903 349° North 431 496 39,000 -50 Level Jacksonville Center
Mon 11:54:35 AM 29.5386 -81.3194 348° North 426 490 38,900  Descending Jacksonville Center
Mon 11:57:35 AM 29.8967 -81.4022 North 431 496 39,000 25 Climbing Jacksonville Center
Mon 11:58:35 AM 30.0161 -81.4342 347° North 431 496 39,000 -50 Level Jacksonville Center
Mon 11:59:35 AM 30.1333 -81.4611 349° North 431 496 38,900 -50 Descending Jacksonville Center
Mon 12:00:35 PM 30.2483 -81.4883 348° North 431 496 38,900 33 Level Jacksonville Center
Mon 12:02:35 PM 30.5136 -81.4964 North 443 510 39,000 33 Climbing Jacksonville Center
Mon 12:03:00 PM 30.5593 -81.4812 North  Level FlightAware Approximate
Mon 12:03:35 PM 30.6408 -81.4872 North 443 510 39,000  Level Jacksonville Center
Mon 12:04:35 PM 30.7681 -81.4636 North 448 516 39,000  Level Jacksonville Center
Mon 12:05:35 PM 30.8925 -81.4036 22° Northeast 463 533 39,000 -50 Level Jacksonville Center
Mon 12:06:35 PM 31.0172 -81.3436 22° Northeast 469 540 38,900  Descending Jacksonville Center
Mon 12:07:35 PM 31.1375 -81.2833 23° Northeast 469 540 39,000 33 Climbing Jacksonville Center
Mon 12:09:35 PM 31.3719 -81.1675 24° Northeast 475 547 39,000  Level Jacksonville Center
Mon 12:10:35 PM 31.5086 -81.0992 23° Northeast 475 547 39,000  Level Jacksonville Center
Mon 12:11:35 PM 31.6186 -81.0408 24° Northeast 475 547 39,000  Level Jacksonville Center
Mon 12:14:35 PM 31.9936 -80.8519 25° Northeast 481 554 39,000  Level Jacksonville Center
Mon 12:15:35 PM 32.1303 -80.7828 23° Northeast 481 554 39,000  Level Jacksonville Center
Mon 12:16:35 PM 32.2586 -80.7183 23° Northeast 481 554 39,000  Level Jacksonville Center
Mon 12:17:35 PM 32.3806 -80.6539 24° Northeast 487 560 39,000 -25 Level Jacksonville Center
Mon 12:20:35 PM 32.7550 -80.4619 23° Northeast 480 552 38,900  Descending Jacksonville Center
Mon 12:21:35 PM 32.8789 -80.3967 24° Northeast 480 552 39,000 50 Climbing Jacksonville Center
Mon 12:22:35 PM 33.0028 -80.3314 24° Northeast 480 552 39,000  Level Jacksonville Center
Mon 12:23:35 PM 33.1289 -80.2683 23° Northeast 480 552 39,000  Level Jacksonville Center
Mon 12:24:35 PM 33.2422 -80.2103 23° Northeast 474 545 39,000 -33 Level Jacksonville Center
Mon 12:26:00 PM 33.3126 -80.1308 23° Northeast  Level FlightAware Approximate
Mon 12:26:35 PM 33.4836 -80.0811 24° Northeast 468 539 38,900  Level Jacksonville Center
Mon 12:27:35 PM 33.6033 -80.0175 24° Northeast 468 539 39,000 50 Climbing Jacksonville Center
Mon 12:28:35 PM 33.7269 -79.9533 23° Northeast 474 545 39,000  Level Jacksonville Center
Mon 12:29:35 PM 33.8506 -79.8867 24° Northeast 474 545 39,000  Level Jacksonville Center
Mon 12:30:35 PM 33.9742 -79.8200 24° Northeast 474 545 39,000  Level Jacksonville Center
Mon 12:32:35 PM 34.2192 -79.6883 26° Northeast 474 545 39,000  Level Jacksonville Center
Mon 12:33:35 PM 34.3489 -79.6181 24° Northeast 474 545 39,000  Level Jacksonville Center
Mon 12:34:36 PM 34.4733 -79.5522 24° Northeast 476 548 39,000  Level Washington Center
Mon 12:35:37 PM 34.5903 -79.4922 23° Northeast 471 542 39,000  Level Washington Center
Mon 12:36:38 PM 34.7092 -79.4247 25° Northeast 466 536 39,000  Level Washington Center
Mon 12:37:38 PM 34.8322 -79.3597 23° Northeast 466 536 39,000  Level Washington Center
Mon 12:38:36 PM 34.9492 -79.2914 26° Northeast 466 536 39,000  Level Washington Center
Mon 12:39:36 PM 35.0722 -79.2286 23° Northeast 466 536 39,000  Level Washington Center
Mon 12:40:36 PM 35.1931 -79.1606 25° Northeast 466 536 39,000 50 Level Washington Center
Mon 12:41:37 PM 35.3183 -79.0922 24° Northeast 472 543 39,100  Climbing Washington Center
Mon 12:42:37 PM 35.4433 -79.0236 24° Northeast 478 550 39,000 -25 Descending Washington Center
Mon 12:45:36 PM 35.8122 -78.8192 25° Northeast 490 564 39,000  Level Washington Center
Mon 12:46:36 PM 35.9369 -78.7500 24° Northeast 490 564 39,000  Level Washington Center
Mon 12:47:37 PM 36.0619 -78.6781 25° Northeast 490 564 39,000  Level Washington Center
Mon 12:49:38 PM 36.3117 -78.5383 27° Northeast 484 557 39,000  Level Washington Center
Mon 12:50:36 PM 36.4344 -78.4653 26° Northeast 484 557 39,000  Level Washington Center
Mon 12:51:36 PM 36.5614 -78.3950 24° Northeast 484 557 39,000  Level Washington Center
Mon 12:52:38 PM 36.6819 -78.3217 26° Northeast 484 557 39,000  Level Washington Center
Mon 12:54:36 PM 36.9275 -78.1614 26° Northeast 489 563 39,000  Level Washington Center
Mon 12:55:37 PM 37.0481 -78.0822 28° Northeast 489 563 39,000  Level Washington Center
Mon 12:56:36 PM 37.1731 -78.0003 28° Northeast 489 563 39,000  Level Washington Center
Mon 12:57:36 PM 37.2956 -77.9206 27° Northeast 489 563 39,000 -494 Level Washington Center
Mon 12:59:14 PM 37.4875 -77.7914 28° Northeast 498 573 37,700 -1,844 Descending New York Center
Mon 01:00:35 PM 37.6778 -77.6647 28° Northeast 494 568 33,500 -2,161 Descending Washington Center
Mon 01:02:20 PM 37.8789 -77.5158 30° Northeast 502 578 31,000 -898 Descending New York Center
Mon 01:03:22 PM 37.9964 -77.4058 36° Northeast 517 595 31,000  Level New York Center
Mon 01:04:24 PM 38.1164 -77.2950 36° Northeast 528 608 31,000  Level New York Center
Mon 01:05:25 PM 38.2356 -77.1839 36° Northeast 530 610 31,000 -439 Level New York Center
Mon 01:06:27 PM 38.3781 -77.0525 36° Northeast 531 611 30,100 -1,091 Descending New York Center
Mon 01:07:37 PM 38.5014 -76.9367 36° Northeast 531 611 28,600 -1,557 Descending Washington Center
Mon 01:08:38 PM 38.6172 -76.8297 36° Northeast 526 605 26,700 -2,430 Descending Washington Center
Mon 01:09:38 PM 38.7164 -76.7039 45° Northeast 514 592 23,700 -3,102 Descending Washington Center
Mon 01:10:36 PM 38.7533 -76.5261 75° East 484 557 20,600 -2,571 Descending Washington Center
Mon 01:11:37 PM 38.7858 -76.3533 76° East 484 557 18,600 -1,884 Descending Washington Center
Mon 01:12:37 PM 38.8200 -76.1939 75° East 479 551 16,800 -1,686 Descending Washington Center
Mon 01:13:38 PM 38.8500 -76.0394 76° East 458 527 15,200 -1,079 Descending Washington Center
Mon 01:15:46 PM 38.9756 -75.7742 59° Northeast 417 480 13,400 -818 Descending New York Center
Mon 01:16:56 PM 39.1000 -75.7333 14° North 373 429 12,500 -624 Descending Philadelphia TRACON
Mon 01:17:51 PM 39.2000 -75.6833 21° North 362 417 12,100 -169 Descending Philadelphia TRACON
Mon 01:19:54 PM 39.3739 -75.5811 24° Northeast 383 441 12,000  Descending New York Center
Mon 01:20:57 PM 39.4833 -75.5000 30° Northeast 377 434 12,100  Climbing Philadelphia TRACON
Mon 01:21:57 PM 39.5667 -75.4333 32° Northeast 378 435 12,000 -50 Descending Philadelphia TRACON
Mon 01:22:57 PM 39.6500 -75.3500 38° Northeast 377 434 12,000 -450 Level Philadelphia TRACON
Mon 01:23:57 PM 39.7500 -75.2833 27° Northeast 375 432 11,100 -800 Descending Philadelphia TRACON
Mon 01:24:57 PM 39.8333 -75.2167 32° Northeast 314 361 10,400 -1,400 Descending Philadelphia TRACON
Mon 01:25:57 PM 39.8833 -75.1667 37° Northeast 291 335 8,300 -1,632 Descending Philadelphia TRACON
Mon 01:26:51 PM 39.9500 -75.1167 30° Northeast 269 310 7,300 -1,526 Descending Philadelphia TRACON
Mon 01:27:51 PM 40.0167 -75.0667 30° Northeast 264 304 5,400 -1,387 Descending Philadelphia TRACON
Mon 01:29:57 PM 40.1333 -74.9833 29° Northeast 221 254 3,000 -667 Descending Philadelphia TRACON
Mon 01:31:18 PM 40.1931 -74.9086 44° Northeast 224 258 3,100 -126 Climbing New York Center
Mon 01:32:20 PM 40.2194 -74.8331 65° Northeast 214 246 2,700 -532 Descending New York Center
Mon 01:33:22 PM 40.2447 -74.7731 61° Northeast 184 212 2,000 -387 Descending New York Center
Mon 01:34:24 PM 40.2772 -74.7286 46° Northeast 178 205 1,900 -336 Descending New York Center
Mon 01:35:27 PM 40.3081 -74.7561 326° Northwest 157 181 1,300 -513 Descending New York Center
Mon 01:37:31 PM 40.2672 -74.8253 232° Southwest 126 145 300 -484 Descending New York Center

Login

Don't have an account? Register now (free) for customized features, flight alerts, and more!